F/V Pasiphae 2 — FMFN — position and weather

sailwx.info

Track history (hours):
 
Tides and Currents Weather Stations Pressure Air Temp Water Temp Dewpoint Dewpoint Depression Visibility Wind Speed Wind Dir Waves Ship Positions

F/V Pasiphae 2

Last reported at 2014-Dec-20 01:33 UTC. Time now 2014-Dec-20 01:35 UTC.
Position N 47°44' W 003°22'.

Length 14 m.

Type: Fishing. MMSI: 228224800.

Date/timePositionNaut miles runAvg speedWind from/ knotsBaromVisibWave heightAir tempDewpointWater temp
2014-Dec-20 01:33N 47°44' W 003°22'1 0.6
2014-Dec-20 00:33N 47°43' W 003°22'4 0.1
2014-Dec-18 02:33N 47°39' W 003°22'4 4.4
2014-Dec-18 01:33N 47°44' W 003°22'0 0.2
2014-Dec-18 00:34N 47°44' W 003°22'2 2.4
2014-Dec-17 23:34N 47°41' W 003°22'  
2014-Dec-11 22:17N 47°44' W 003°22'3 4.1
2014-Dec-11 21:33N 47°41' W 003°22'9 8.2
2014-Dec-11 20:27N 47°32' W 003°23'4 0.3
2014-Dec-11 03:31N 47°36' W 003°22'8 8.3
2014-Dec-11 02:33N 47°44' W 003°22'5 5.1
2014-Dec-11 01:33N 47°39' W 003°22'9 8.5
2014-Dec-11 00:31N 47°30' W 003°23'3 0.1
2014-Dec-10 04:04N 47°33' W 003°23'4 8.5
2014-Dec-10 03:33N 47°37' W 003°23'7 6.8
2014-Dec-10 02:34N 47°44' W 003°22'2 2.4
2014-Dec-10 01:33N 47°41' W 003°22'  
Track history (hours):
 
Tides and Currents Weather Stations Pressure Air Temp Water Temp Dewpoint Dewpoint Depression Visibility Wind Speed Wind Dir Waves Ship Positions

F/V Pasiphae 2

Last reported at 2014-Dec-20 01:33 UTC. Time now 2014-Dec-20 01:35 UTC.
Position N 47°44' W 003°22'.

Length 14 m.

Type: Fishing. MMSI: 228224800.

Date/timePositionNaut miles runAvg speedWind from/ knotsBaromVisibWave heightAir tempDewpointWater temp
2014-Dec-20 01:33N 47°44' W 003°22'1 0.6
2014-Dec-20 00:33N 47°43' W 003°22'4 0.1
2014-Dec-18 02:33N 47°39' W 003°22'4 4.4
2014-Dec-18 01:33N 47°44' W 003°22'0 0.2
2014-Dec-18 00:34N 47°44' W 003°22'2 2.4
2014-Dec-17 23:34N 47°41' W 003°22'  
2014-Dec-11 22:17N 47°44' W 003°22'3 4.1
2014-Dec-11 21:33N 47°41' W 003°22'9 8.2
2014-Dec-11 20:27N 47°32' W 003°23'4 0.3
2014-Dec-11 03:31N 47°36' W 003°22'8 8.3
2014-Dec-11 02:33N 47°44' W 003°22'5 5.1
2014-Dec-11 01:33N 47°39' W 003°22'9 8.5
2014-Dec-11 00:31N 47°30' W 003°23'3 0.1
2014-Dec-10 04:04N 47°33' W 003°23'4 8.5
2014-Dec-10 03:33N 47°37' W 003°23'7 6.8
2014-Dec-10 02:34N 47°44' W 003°22'2 2.4
2014-Dec-10 01:33N 47°41' W 003°22'  

Dump ship's entire track history